Time;durP1;ratioP1;P1;durP2;ratioP2;P2;SDS_P1;SDS_P2;PMS_P1;PMS_P2;Temp;Humidity;BMP_temperature;BMP_pressure;BME280_temperature;BME280_humidity;BME280_pressure;Samples;Min_cycle;Max_cycle;Signal;HPM_P1;HPM_P2
2022/08/01 00:01:50;;;;;;;6.78;5.95;;;19.20;99.90;;;;;;5071243;28;20051;-70
2022/08/01 00:04:16;;;;;;;7.72;6.32;;;19.20;99.90;;;;;;5070897;28;20063;-70
2022/08/01 00:06:41;;;;;;;11.68;7.13;;;19.20;99.90;;;;;;5071247;28;20042;-70
2022/08/01 00:09:07;;;;;;;9.60;6.88;;;19.20;99.90;;;;;;5071406;28;20511;-70
2022/08/01 00:11:32;;;;;;;9.00;7.07;;;19.20;99.90;;;;;;5072644;28;20147;-70
2022/08/01 00:13:58;;;;;;;9.63;6.60;;;19.20;99.90;;;;;;5054330;28;20032;-70
2022/08/01 00:16:24;;;;;;;10.68;7.07;;;19.20;99.90;;;;;;5072723;28;20094;-70
2022/08/01 00:18:51;;;;;;;10.10;7.03;;;19.20;99.90;;;;;;5070284;28;20058;-71
2022/08/01 00:21:17;;;;;;;9.50;7.20;;;19.20;99.90;;;;;;5072353;28;20054;-71
2022/08/01 00:23:45;;;;;;;11.57;8.25;;;19.10;99.90;;;;;;5072023;28;20087;-71
2022/08/01 00:26:12;;;;;;;13.57;8.25;;;19.10;99.90;;;;;;5070729;28;20036;-71
2022/08/01 00:28:38;;;;;;;12.48;8.80;;;19.10;99.90;;;;;;5072424;28;20036;-71
2022/08/01 00:31:03;;;;;;;13.25;9.25;;;19.10;99.90;;;;;;5072439;28;20036;-71
2022/08/01 00:33:29;;;;;;;11.43;9.13;;;19.10;99.90;;;;;;5070538;28;20040;-71
2022/08/01 00:35:54;;;;;;;14.48;8.48;;;19.10;99.90;;;;;;5072093;28;20097;-71
2022/08/01 00:38:20;;;;;;;12.70;9.07;;;19.00;99.90;;;;;;5070963;28;20048;-71
2022/08/01 00:40:46;;;;;;;12.75;8.88;;;19.10;99.90;;;;;;5072185;28;20052;-71
2022/08/01 00:43:11;;;;;;;15.98;8.65;;;19.00;99.90;;;;;;5070585;28;20135;-71
2022/08/01 00:45:37;;;;;;;13.77;9.25;;;19.10;99.90;;;;;;5053831;28;20036;-71
2022/08/01 00:48:03;;;;;;;17.38;9.90;;;19.10;99.90;;;;;;5053654;28;20507;-71
2022/08/01 00:50:29;;;;;;;16.95;9.80;;;19.00;99.90;;;;;;5070506;28;20040;-71
2022/08/01 00:52:55;;;;;;;14.52;9.18;;;19.00;99.90;;;;;;5069971;28;20080;-70
2022/08/01 00:55:21;;;;;;;15.82;9.18;;;19.00;99.90;;;;;;5070313;28;20036;-71
2022/08/01 00:57:48;;;;;;;12.82;9.43;;;19.00;99.90;;;;;;5070319;28;20040;-71
2022/08/01 01:00:14;;;;;;;14.30;8.75;;;19.00;99.90;;;;;;5070276;28;20044;-71
2022/08/01 01:02:39;;;;;;;14.52;8.23;;;19.00;99.90;;;;;;5071212;28;20404;-71
2022/08/01 01:05:05;;;;;;;11.65;8.65;;;19.00;99.90;;;;;;5070176;28;20055;-71
2022/08/01 01:07:56;;;;;;;11.65;8.65;;;19.00;99.90;;;;;;5070127;28;20489;-71
2022/08/01 01:10:31;;;;;;;11.13;8.43;;;19.00;99.90;;;;;;5053694;28;20032;-70
2022/08/01 01:13:21;;;;;;;12.45;7.90;;;19.00;99.90;;;;;;5069834;28;20491;-71
2022/08/01 01:15:58;;;;;;;11.57;8.45;;;19.00;99.90;;;;;;5070011;28;20040;-71
2022/08/01 01:18:30;;;;;;;14.95;8.05;;;18.90;99.90;;;;;;5069803;28;20051;-70
2022/08/01 01:21:17;;;;;;;14.85;8.88;;;18.90;99.90;;;;;;5069799;28;20045;-71
2022/08/01 01:24:06;;;;;;;13.90;9.10;;;18.90;99.90;;;;;;5069659;28;20051;-71
2022/08/01 01:26:57;;;;;;;12.73;8.73;;;18.90;99.90;;;;;;5069832;28;20044;-71
2022/08/01 01:29:33;;;;;;;12.98;8.40;;;18.90;99.90;;;;;;5069745;28;20105;-71
2022/08/01 01:32:21;;;;;;;12.73;8.55;;;18.90;99.90;;;;;;5070991;28;20457;-71
2022/08/01 01:34:50;;;;;;;10.55;6.97;;;18.90;99.90;;;;;;5053079;28;20045;-71
2022/08/01 01:37:21;;;;;;;11.50;7.53;;;18.90;99.90;;;;;;5069647;28;20513;-71
2022/08/01 01:39:50;;;;;;;9.27;6.65;;;18.90;99.90;;;;;;5069609;28;20044;-71
2022/08/01 01:42:17;;;;;;;10.75;7.50;;;18.90;99.90;;;;;;5069493;28;20051;-71
2022/08/01 01:44:44;;;;;;;12.00;6.65;;;18.90;99.90;;;;;;5069713;28;20349;-70
2022/08/01 01:47:15;;;;;;;10.73;6.90;;;18.90;99.90;;;;;;5069633;28;20516;-70
2022/08/01 01:49:44;;;;;;;8.75;6.97;;;18.90;99.90;;;;;;5069511;28;20044;-70
2022/08/01 01:52:16;;;;;;;8.95;6.65;;;18.90;99.90;;;;;;5069475;28;20045;-71
2022/08/01 01:54:48;;;;;;;10.93;6.50;;;18.80;99.90;;;;;;5069338;28;20044;-70
2022/08/01 01:57:16;;;;;;;8.27;6.15;;;18.80;99.90;;;;;;5070592;28;20062;-70
2022/08/01 01:59:43;;;;;;;9.05;6.45;;;18.80;99.90;;;;;;5069536;28;20376;-70
2022/08/01 02:02:10;;;;;;;7.13;6.25;;;18.80;99.90;;;;;;5069544;28;20484;-70
2022/08/01 02:04:38;;;;;;;12.60;7.40;;;18.80;99.90;;;;;;5069115;28;20032;-70
2022/08/01 02:07:05;;;;;;;9.50;8.50;;;18.80;99.90;;;;;;5068969;28;20078;-70
2022/08/01 02:09:33;;;;;;;8.48;7.65;;;18.80;99.90;;;;;;5070586;28;20565;-70
2022/08/01 02:12:00;;;;;;;11.40;7.80;;;18.80;99.90;;;;;;5070123;28;20511;-70
2022/08/01 02:14:28;;;;;;;12.70;7.57;;;18.80;99.90;;;;;;5069018;28;20612;-70
2022/08/01 02:16:56;;;;;;;8.70;7.80;;;18.70;99.90;;;;;;5052241;28;20047;-70
2022/08/01 02:19:22;;;;;;;8.45;7.63;;;18.70;99.90;;;;;;5069279;28;20370;-70
2022/08/01 02:22:01;;;;;;;7.47;6.78;;;18.70;99.90;;;;;;5068834;28;20044;-70
2022/08/01 02:24:57;;;;;;;7.40;6.22;;;18.70;99.90;;;;;;5068947;28;20107;-70
2022/08/01 02:27:30;;;;;;;6.32;5.72;;;18.70;99.90;;;;;;5068710;28;20528;-70
2022/08/01 02:30:05;;;;;;;7.13;5.75;;;18.70;99.90;;;;;;5069087;28;20150;-70
2022/08/01 02:32:38;;;;;;;5.85;5.35;;;18.70;99.90;;;;;;5070320;28;20044;-70
2022/08/01 02:35:07;;;;;;;4.50;4.10;;;18.70;99.90;;;;;;5072222;28;20039;-70
2022/08/01 02:37:37;;;;;;;5.13;4.65;;;18.60;99.90;;;;;;5069529;28;20124;-69
2022/08/01 02:40:04;;;;;;;5.65;4.25;;;18.60;99.90;;;;;;5069041;28;20431;-70
2022/08/01 02:42:33;;;;;;;5.32;4.55;;;18.60;99.90;;;;;;5069926;28;20075;-70
2022/08/01 02:45:01;;;;;;;5.03;4.18;;;18.60;99.90;;;;;;5052180;28;20040;-70
2022/08/01 02:47:29;;;;;;;4.38;3.97;;;18.60;99.90;;;;;;5070218;28;20051;-70
2022/08/01 02:49:56;;;;;;;5.15;4.68;;;18.50;99.90;;;;;;5069126;28;20045;-69
2022/08/01 02:52:25;;;;;;;5.50;4.43;;;18.60;99.90;;;;;;5069817;28;20241;-69
2022/08/01 02:54:54;;;;;;;5.32;4.40;;;18.50;99.90;;;;;;5069986;28;20049;-69
2022/08/01 02:57:21;;;;;;;5.05;4.22;;;18.50;99.90;;;;;;5068723;28;20114;-69
2022/08/01 02:59:49;;;;;;;6.22;4.55;;;18.50;99.90;;;;;;5069860;28;20443;-70
2022/08/01 03:02:16;;;;;;;4.78;4.45;;;18.50;99.90;;;;;;5051678;28;20040;-70
2022/08/01 03:04:43;;;;;;;5.03;3.83;;;18.40;99.90;;;;;;5069844;28;20540;-70
2022/08/01 03:07:11;;;;;;;7.53;4.60;;;18.40;99.90;;;;;;5069810;28;20044;-70
2022/08/01 03:09:41;;;;;;;5.82;5.20;;;18.40;99.90;;;;;;5069985;28;20094;-69
2022/08/01 03:12:13;;;;;;;5.38;4.57;;;18.40;99.90;;;;;;5068407;28;20486;-69
2022/08/01 03:14:41;;;;;;;6.85;4.78;;;18.40;99.90;;;;;;5068127;28;20480;-70
2022/08/01 03:17:09;;;;;;;5.93;4.65;;;18.40;99.90;;;;;;5068390;28;20048;-70
2022/08/01 03:19:37;;;;;;;5.72;4.82;;;18.40;99.90;;;;;;5051800;28;20064;-70
2022/08/01 03:22:11;;;;;;;5.82;4.45;;;18.40;99.90;;;;;;5069873;28;20121;-70
2022/08/01 03:24:39;;;;;;;7.80;4.38;;;18.40;99.90;;;;;;5069725;28;20076;-70
2022/08/01 03:27:06;;;;;;;4.72;4.32;;;18.40;99.90;;;;;;5068337;28;20056;-70
2022/08/01 03:29:33;;;;;;;5.18;4.78;;;18.50;99.90;;;;;;5069651;28;20066;-70
2022/08/01 03:32:00;;;;;;;5.57;4.63;;;18.40;99.90;;;;;;5069551;28;20177;-70
2022/08/01 03:34:27;;;;;;;6.50;4.57;;;18.40;99.90;;;;;;5068007;28;20079;-71
2022/08/01 03:37:03;;;;;;;5.97;5.28;;;18.40;99.90;;;;;;5068245;28;20049;-70
2022/08/01 03:39:33;;;;;;;5.78;4.18;;;18.40;99.90;;;;;;5069557;28;20036;-70
2022/08/01 03:42:05;;;;;;;6.88;5.05;;;18.30;99.90;;;;;;5069878;28;20191;-70
2022/08/01 03:44:35;;;;;;;6.63;4.90;;;18.30;99.90;;;;;;5069486;28;20072;-70
2022/08/01 03:47:06;;;;;;;5.13;4.65;;;18.30;99.90;;;;;;5069513;28;20032;-70
2022/08/01 03:49:34;;;;;;;6.55;4.93;;;18.40;99.90;;;;;;5051474;28;20060;-70
2022/08/01 03:52:07;;;;;;;9.15;4.47;;;18.30;99.90;;;;;;5067984;28;20032;-70
2022/08/01 03:54:37;;;;;;;5.28;4.78;;;18.30;99.90;;;;;;5070811;28;20178;-70
2022/08/01 03:57:03;;;;;;;9.77;5.07;;;18.20;99.90;;;;;;5069979;28;20765;-70
2022/08/01 03:59:30;;;;;;;8.60;4.63;;;18.20;99.90;;;;;;5068184;28;20036;-69
2022/08/01 04:01:57;;;;;;;8.32;4.32;;;18.20;99.90;;;;;;5069928;28;20048;-70
2022/08/01 04:04:22;;;;;;;8.98;3.72;;;18.20;99.90;;;;;;5070547;28;20119;-69
2022/08/01 04:06:53;;;;;;;5.75;3.88;;;18.20;99.90;;;;;;5070696;28;20132;-69
2022/08/01 04:09:20;;;;;;;4.50;3.03;;;18.10;99.90;;;;;;5071987;28;20041;-70
2022/08/01 04:11:46;;;;;;;6.97;3.58;;;18.20;99.90;;;;;;5072489;28;20535;-70
2022/08/01 04:14:12;;;;;;;4.43;3.13;;;18.10;99.90;;;;;;5070634;28;20083;-70
2022/08/01 04:16:38;;;;;;;3.38;3.08;;;18.20;99.90;;;;;;5071100;28;20444;-69
2022/08/01 04:19:07;;;;;;;5.47;3.20;;;18.20;99.90;;;;;;5071440;28;20408;-70
2022/08/01 04:21:34;;;;;;;8.23;3.28;;;18.10;99.90;;;;;;5070809;28;20048;-71
2022/08/01 04:24:10;;;;;;;9.82;3.30;;;18.10;99.90;;;;;;5070725;28;20175;-71
2022/08/01 04:26:37;;;;;;;5.15;3.05;;;18.10;99.90;;;;;;5072163;28;20040;-70
2022/08/01 04:29:05;;;;;;;6.78;3.35;;;18.10;99.90;;;;;;5070941;28;20296;-71
2022/08/01 04:31:32;;;;;;;6.95;3.25;;;18.10;99.90;;;;;;5072177;28;20044;-71
2022/08/01 04:34:01;;;;;;;7.93;4.10;;;18.10;99.90;;;;;;5071894;28;20040;-71
2022/08/01 04:36:30;;;;;;;7.38;3.80;;;18.10;99.90;;;;;;5072384;28;20458;-71
2022/08/01 04:39:00;;;;;;;9.40;3.45;;;18.10;99.90;;;;;;5070700;28;20097;-70
2022/08/01 04:41:26;;;;;;;5.13;3.40;;;18.00;99.90;;;;;;5070675;28;20037;-70
2022/08/01 04:43:53;;;;;;;7.25;3.38;;;18.00;99.90;;;;;;5071543;28;20079;-71
2022/08/01 04:46:19;;;;;;;3.95;3.30;;;18.10;99.90;;;;;;5070564;28;20501;-71
2022/08/01 04:48:45;;;;;;;9.98;3.80;;;18.10;99.90;;;;;;5070389;28;20090;-71
2022/08/01 04:51:13;;;;;;;8.00;3.80;;;18.10;99.90;;;;;;5070548;28;20093;-70
2022/08/01 04:53:39;;;;;;;5.18;3.55;;;18.00;99.90;;;;;;5071561;28;20041;-70
2022/08/01 04:56:05;;;;;;;9.68;3.78;;;18.10;99.90;;;;;;5070558;28;20401;-70
2022/08/01 04:58:31;;;;;;;5.25;3.75;;;18.10;99.90;;;;;;5070509;28;20662;-70
2022/08/01 05:00:56;;;;;;;7.22;4.07;;;18.10;99.90;;;;;;5070132;28;20044;-70
2022/08/01 05:03:22;;;;;;;7.22;3.45;;;18.00;99.90;;;;;;5071105;28;20570;-70
2022/08/01 05:05:47;;;;;;;8.20;3.72;;;18.00;99.90;;;;;;5071721;28;20040;-70
2022/08/01 05:08:13;;;;;;;5.72;3.53;;;18.00;99.90;;;;;;5071653;28;20119;-70
2022/08/01 05:10:38;;;;;;;6.25;4.03;;;18.00;99.90;;;;;;5070004;28;20090;-70
2022/08/01 05:13:06;;;;;;;7.53;3.75;;;18.10;99.90;;;;;;5069450;28;20033;-71
2022/08/01 05:15:31;;;;;;;10.65;3.75;;;18.10;99.90;;;;;;5071489;28;20123;-70
2022/08/01 05:17:57;;;;;;;6.90;3.78;;;18.10;99.90;;;;;;5071091;28;20423;-70
2022/08/01 05:20:22;;;;;;;10.68;3.85;;;18.00;99.90;;;;;;5069754;28;20046;-70
2022/08/01 05:22:48;;;;;;;6.30;3.72;;;18.10;99.90;;;;;;5052867;28;20187;-70
2022/08/01 05:25:14;;;;;;;8.40;3.70;;;18.00;99.90;;;;;;5071130;28;20048;-70
2022/08/01 05:27:40;;;;;;;8.23;3.95;;;18.00;99.90;;;;;;5069755;28;20052;-71
2022/08/01 05:30:09;;;;;;;10.60;3.95;;;18.00;99.90;;;;;;5069780;28;20512;-70
2022/08/01 05:32:36;;;;;;;6.55;3.67;;;18.10;99.90;;;;;;5070921;28;20067;-70
2022/08/01 05:35:02;;;;;;;12.38;3.90;;;18.00;99.90;;;;;;5071197;28;20080;-70
2022/08/01 05:37:27;;;;;;;8.00;3.45;;;18.00;99.90;;;;;;5071122;28;20040;-70
2022/08/01 05:39:53;;;;;;;7.53;3.47;;;17.90;99.90;;;;;;5069729;28;20068;-70
2022/08/01 05:42:19;;;;;;;5.63;3.35;;;18.00;99.90;;;;;;5069285;28;20041;-69
2022/08/01 05:44:44;;;;;;;14.65;3.33;;;17.90;99.90;;;;;;5069998;28;20516;-70
2022/08/01 05:47:10;;;;;;;10.60;4.15;;;17.80;99.90;;;;;;5052806;28;20044;-70
2022/08/01 05:49:35;;;;;;;14.25;3.50;;;17.80;99.90;;;;;;5070724;28;20036;-71
2022/08/01 05:52:01;;;;;;;8.85;3.67;;;17.70;99.90;;;;;;5070853;28;20048;-70
2022/08/01 05:54:27;;;;;;;9.00;3.40;;;17.70;99.90;;;;;;5069027;28;20044;-70
2022/08/01 05:56:53;;;;;;;13.88;3.72;;;17.70;99.90;;;;;;5069561;28;20032;-69
2022/08/01 05:59:18;;;;;;;7.60;3.40;;;17.80;99.90;;;;;;5070695;28;20063;-70
2022/08/01 06:01:44;;;;;;;22.00;3.67;;;17.70;99.90;;;;;;5069325;28;20078;-70
2022/08/01 06:04:10;;;;;;;12.32;3.33;;;17.60;99.90;;;;;;5070504;28;20501;-70
2022/08/01 06:06:35;;;;;;;10.80;3.60;;;17.70;99.90;;;;;;5069451;28;20349;-66
2022/08/01 06:09:01;;;;;;;14.68;4.22;;;17.70;99.90;;;;;;5065002;28;20052;-66
2022/08/01 06:11:26;;;;;;;9.70;3.70;;;17.70;99.90;;;;;;5050712;28;20044;-67
2022/08/01 06:13:53;;;;;;;15.20;3.80;;;17.90;99.90;;;;;;5048653;28;20037;-67
2022/08/01 06:16:19;;;;;;;12.07;3.75;;;18.00;99.90;;;;;;5048681;28;20037;-67
2022/08/01 06:18:44;;;;;;;17.80;4.13;;;18.20;99.90;;;;;;5049018;28;20037;-67
2022/08/01 06:21:10;;;;;;;14.52;3.63;;;18.10;99.90;;;;;;5050474;28;20056;-67
2022/08/01 06:23:35;;;;;;;20.05;4.38;;;18.10;99.90;;;;;;5055372;28;20056;-66
2022/08/01 06:26:01;;;;;;;18.38;4.05;;;18.20;99.90;;;;;;5057951;28;20049;-68
2022/08/01 06:28:28;;;;;;;16.45;3.50;;;18.20;99.90;;;;;;5060947;28;20066;-68
2022/08/01 06:30:53;;;;;;;16.40;3.45;;;18.30;99.90;;;;;;5056864;28;20783;-69
2022/08/01 06:33:19;;;;;;;17.92;3.60;;;18.50;99.90;;;;;;5058467;28;20075;-69
2022/08/01 06:35:44;;;;;;;15.60;3.42;;;18.60;99.90;;;;;;5067156;28;20056;-69
2022/08/01 06:38:10;;;;;;;18.35;3.35;;;18.60;99.90;;;;;;5069225;28;20075;-68
2022/08/01 06:40:36;;;;;;;17.38;3.50;;;18.60;99.90;;;;;;5070345;28;20036;-69
2022/08/01 06:43:02;;;;;;;9.30;3.33;;;18.40;99.90;;;;;;5068366;28;20048;-69
2022/08/01 06:45:27;;;;;;;17.27;4.35;;;18.40;99.90;;;;;;5068914;28;20041;-68
2022/08/01 06:47:53;;;;;;;15.32;3.80;;;18.60;99.90;;;;;;5070059;28;20124;-69
2022/08/01 06:50:18;;;;;;;20.45;4.70;;;18.60;99.90;;;;;;5070122;28;20135;-69
2022/08/01 06:52:44;;;;;;;18.33;3.40;;;18.60;99.90;;;;;;5067972;28;20036;-69
2022/08/01 06:55:10;;;;;;;18.75;3.55;;;18.70;99.90;;;;;;5068895;28;20044;-69
2022/08/01 06:57:36;;;;;;;15.73;3.00;;;18.80;99.90;;;;;;5051890;28;20051;-69
2022/08/01 07:00:08;;;;;;;20.58;3.05;;;18.90;99.90;;;;;;5068686;28;20531;-69
2022/08/01 07:02:34;;;;;;;;;;;18.90;99.90;;;;;;5070020;28;20040;-68
2022/08/01 07:05:00;;;;;;;13.07;3.00;;;19.10;99.90;;;;;;5070149;28;19962;-69
2022/08/01 07:07:26;;;;;;;15.85;3.38;;;19.00;99.90;;;;;;5069992;28;20041;-69
2022/08/01 07:09:52;;;;;;;14.27;3.03;;;18.80;99.90;;;;;;5070318;28;20055;-68
2022/08/01 07:12:17;;;;;;;17.00;3.83;;;18.70;99.90;;;;;;5071250;28;20028;-68
2022/08/01 07:14:43;;;;;;;13.88;3.33;;;18.60;99.90;;;;;;5070326;28;20036;-67
2022/08/01 07:17:08;;;;;;;22.08;4.18;;;18.50;99.90;;;;;;5052322;28;20040;-71
2022/08/01 07:19:34;;;;;;;14.93;3.72;;;18.50;99.90;;;;;;5070879;28;20489;-70
2022/08/01 07:22:00;;;;;;;14.68;3.72;;;18.60;99.90;;;;;;5069828;28;20040;-71
2022/08/01 07:24:26;;;;;;;14.98;3.60;;;18.20;99.90;;;;;;5069065;28;20044;-72
2022/08/01 07:26:53;;;;;;;18.55;4.22;;;18.30;99.90;;;;;;5052700;28;20080;-72
2022/08/01 07:29:19;;;;;;;13.05;3.92;;;18.30;99.90;;;;;;5073076;28;20056;-71
2022/08/01 07:31:45;;;;;;;19.05;3.97;;;18.30;99.90;;;;;;5072088;28;20052;-71
2022/08/01 07:34:10;;;;;;;14.00;3.58;;;18.30;99.90;;;;;;5055574;28;20044;-70
2022/08/01 07:36:36;;;;;;;19.73;3.50;;;18.20;99.90;;;;;;5072336;28;20051;-73
2022/08/01 07:39:02;;;;;;;11.80;3.30;;;18.20;99.90;;;;;;5073428;28;20044;-71
2022/08/01 07:41:27;;;;;;;22.25;4.00;;;18.20;99.90;;;;;;5073838;28;20042;-71
2022/08/01 07:43:53;;;;;;;16.88;3.55;;;18.40;99.90;;;;;;5073432;28;20040;-70
2022/08/01 07:46:18;;;;;;;15.73;3.92;;;18.30;99.90;;;;;;5073640;28;20430;-71
2022/08/01 07:48:44;;;;;;;16.25;4.32;;;18.30;99.90;;;;;;5073026;28;20068;-71
2022/08/01 07:51:10;;;;;;;15.77;4.20;;;18.30;99.90;;;;;;5076996;28;20128;-71
2022/08/01 07:53:36;;;;;;;12.55;3.25;;;18.30;99.90;;;;;;5056897;28;20115;-70
2022/08/01 07:56:04;;;;;;;21.38;4.10;;;18.40;99.90;;;;;;5071410;28;20051;-71
2022/08/01 07:58:30;;;;;;;15.73;3.80;;;18.40;99.90;;;;;;5075628;28;20446;-70
2022/08/01 08:00:56;;;;;;;16.33;3.80;;;18.60;99.90;;;;;;5073549;28;20127;-70
2022/08/01 08:03:21;;;;;;;21.58;4.18;;;18.50;99.90;;;;;;5076687;28;20044;-70
2022/08/01 08:05:47;;;;;;;17.63;3.88;;;18.60;99.90;;;;;;5076637;28;20044;-70
2022/08/01 08:08:14;;;;;;;21.55;4.35;;;18.60;99.90;;;;;;5057722;28;20549;-72
2022/08/01 08:10:40;;;;;;;16.92;3.83;;;18.60;99.90;;;;;;5073729;28;20040;-70
2022/08/01 08:13:05;;;;;;;21.52;3.60;;;18.40;99.90;;;;;;5073914;28;20531;-70
2022/08/01 08:15:31;;;;;;;15.32;3.30;;;18.50;99.90;;;;;;5074502;28;20687;-70
2022/08/01 08:17:56;;;;;;;13.13;3.45;;;18.60;99.90;;;;;;5075799;28;20459;-70
2022/08/01 08:20:24;;;;;;;14.52;4.28;;;18.60;99.90;;;;;;5080668;28;20132;-70
2022/08/01 08:22:51;;;;;;;14.32;3.72;;;18.60;99.90;;;;;;5062965;28;20106;-70
2022/08/01 08:25:18;;;;;;;15.45;3.53;;;18.50;99.90;;;;;;5072384;28;20245;-70
2022/08/01 08:27:44;;;;;;;15.68;3.90;;;18.50;99.90;;;;;;5072627;28;20083;-70
2022/08/01 08:30:11;;;;;;;19.25;4.50;;;18.60;99.90;;;;;;5072290;28;20068;-70
2022/08/01 08:32:37;;;;;;;13.98;3.67;;;18.60;99.90;;;;;;5055277;28;20303;-70
2022/08/01 08:35:03;;;;;;;14.35;3.67;;;18.60;99.90;;;;;;5055278;28;20476;-70
2022/08/01 08:37:29;;;;;;;14.70;4.32;;;18.60;99.90;;;;;;5071997;28;20036;-69
2022/08/01 08:39:54;;;;;;;15.07;4.03;;;18.60;99.90;;;;;;5071381;28;20089;-69
2022/08/01 08:42:20;;;;;;;17.27;3.65;;;18.70;99.90;;;;;;5073605;28;20123;-70
2022/08/01 08:44:46;;;;;;;14.25;3.50;;;18.80;99.90;;;;;;5073363;28;20033;-70
2022/08/01 08:47:13;;;;;;;18.60;3.80;;;18.90;99.90;;;;;;5074747;28;20051;-70
2022/08/01 08:49:41;;;;;;;10.88;3.50;;;18.90;99.90;;;;;;5075505;28;20054;-70
2022/08/01 08:52:09;;;;;;;20.50;4.47;;;18.90;99.90;;;;;;5072463;28;20101;-70
2022/08/01 08:54:36;;;;;;;17.27;4.20;;;18.90;99.90;;;;;;5062190;28;20036;-70
2022/08/01 08:57:02;;;;;;;15.25;3.83;;;19.20;99.90;;;;;;5062594;28;20087;-70
2022/08/01 08:59:29;;;;;;;15.80;3.25;;;19.30;99.90;;;;;;5062309;28;20401;-70
2022/08/01 09:01:55;;;;;;;15.07;3.65;;;19.30;99.90;;;;;;5051351;28;20037;-70
2022/08/01 09:04:24;;;;;;;14.75;3.90;;;19.40;99.90;;;;;;5054398;28;20123;-70
2022/08/01 09:06:49;;;;;;;15.68;3.78;;;19.40;99.90;;;;;;5071431;28;20037;-70
2022/08/01 09:09:15;;;;;;;13.65;3.55;;;19.40;99.90;;;;;;5072663;28;20698;-71
2022/08/01 09:11:41;;;;;;;13.98;3.50;;;19.40;99.90;;;;;;5070284;28;20036;-71
2022/08/01 09:14:11;;;;;;;15.15;3.05;;;19.50;99.90;;;;;;5069710;28;20492;-71
2022/08/01 09:16:41;;;;;;;12.70;3.58;;;19.60;99.90;;;;;;5070397;28;20063;-70
2022/08/01 09:19:09;;;;;;;17.58;3.72;;;19.20;99.90;;;;;;5070470;28;20063;-68
2022/08/01 09:21:35;;;;;;;15.68;3.58;;;19.40;99.90;;;;;;5071791;28;20353;-68
2022/08/01 09:24:05;;;;;;;10.15;2.83;;;19.30;99.90;;;;;;5070139;28;20029;-68
2022/08/01 09:26:34;;;;;;;9.93;2.80;;;19.30;99.90;;;;;;5070604;28;20112;-69
2022/08/01 09:29:03;;;;;;;11.18;2.67;;;19.70;99.90;;;;;;5075589;28;20450;-69
2022/08/01 09:31:38;;;;;;;11.13;2.63;;;19.90;99.90;;;;;;5075541;28;20052;-68
2022/08/01 09:34:04;;;;;;;12.45;3.50;;;19.80;99.90;;;;;;5071951;28;20047;-67
2022/08/01 09:36:51;;;;;;;10.57;2.75;;;19.70;99.90;;;;;;5070258;28;20040;-67
2022/08/01 09:39:19;;;;;;;13.98;2.92;;;19.80;99.90;;;;;;5068903;28;20080;-69
2022/08/01 09:41:45;;;;;;;13.07;2.83;;;19.80;99.90;;;;;;5068629;28;20420;-69
2022/08/01 09:44:11;;;;;;;12.30;3.15;;;19.60;99.90;;;;;;5069748;28;20079;-68
2022/08/01 09:46:53;;;;;;;11.43;2.55;;;19.50;99.90;;;;;;5070229;28;20072;-69
2022/08/01 09:49:30;;;;;;;12.90;2.97;;;19.40;99.90;;;;;;5070469;28;20036;-67
2022/08/01 09:51:57;;;;;;;12.52;2.80;;;19.30;99.90;;;;;;5070535;28;20032;-67
2022/08/01 09:54:33;;;;;;;9.15;2.50;;;19.30;99.90;;;;;;5071689;28;20048;-67
2022/08/01 09:57:12;;;;;;;11.63;3.13;;;19.60;99.90;;;;;;5071787;28;20492;-68
2022/08/01 09:59:42;;;;;;;15.50;2.78;;;19.70;99.90;;;;;;5071658;28;20370;-66
2022/08/01 10:02:08;;;;;;;9.35;2.60;;;19.70;99.90;;;;;;5070344;28;20045;-67
2022/08/01 10:04:34;;;;;;;8.73;2.38;;;20.00;99.90;;;;;;5071502;28;20041;-67
2022/08/01 10:07:07;;;;;;;15.07;3.05;;;19.60;99.90;;;;;;5071353;28;20029;-67
2022/08/01 10:09:35;;;;;;;11.05;3.08;;;19.60;99.90;;;;;;5071737;28;20051;-66
2022/08/01 10:12:02;;;;;;;9.27;2.63;;;19.60;99.90;;;;;;5071382;28;20043;-67
2022/08/01 10:14:28;;;;;;;16.00;3.13;;;19.70;99.90;;;;;;5070412;28;20075;-68
2022/08/01 10:16:56;;;;;;;13.30;2.70;;;19.60;99.90;;;;;;5070884;28;20067;-67
2022/08/01 10:19:24;;;;;;;6.63;2.42;;;19.60;99.90;;;;;;5070781;28;20080;-66
2022/08/01 10:21:55;;;;;;;7.93;2.45;;;19.80;99.90;;;;;;5068678;28;20036;-67
2022/08/01 10:24:21;;;;;;;14.25;2.97;;;19.70;99.90;;;;;;5069295;28;20097;-67
2022/08/01 10:27:08;;;;;;;8.85;2.67;;;19.70;99.90;;;;;;5069182;28;20040;-67
2022/08/01 10:29:36;;;;;;;10.27;2.45;;;19.90;99.90;;;;;;5069403;28;20438;-67
2022/08/01 10:32:05;;;;;;;8.88;2.75;;;20.00;99.90;;;;;;5068941;28;20102;-67
2022/08/01 10:34:33;;;;;;;12.38;2.70;;;19.80;99.90;;;;;;5060811;28;20370;-67
2022/08/01 10:37:00;;;;;;;8.13;2.92;;;20.00;99.90;;;;;;5052121;28;20087;-67
2022/08/01 10:39:28;;;;;;;12.35;2.97;;;20.10;99.90;;;;;;5065414;28;20047;-67
2022/08/01 10:41:55;;;;;;;13.98;3.53;;;20.00;99.90;;;;;;5068301;28;20089;-66
2022/08/01 10:44:21;;;;;;;8.35;2.50;;;19.90;99.90;;;;;;5067604;28;20037;-67
2022/08/01 10:46:50;;;;;;;10.13;3.00;;;19.80;99.90;;;;;;5068612;28;20397;-67
2022/08/01 10:49:20;;;;;;;13.45;2.25;;;19.70;99.90;;;;;;5060943;28;20043;-66
2022/08/01 10:51:46;;;;;;;8.20;3.00;;;20.10;99.90;;;;;;5048850;28;20051;-67
2022/08/01 10:54:12;;;;;;;8.40;2.40;;;20.20;99.90;;;;;;5048496;28;20037;-66
2022/08/01 10:56:47;;;;;;;8.73;2.50;;;20.30;99.90;;;;;;5050245;28;20501;-66
2022/08/01 10:59:23;;;;;;;11.00;3.03;;;20.40;99.90;;;;;;5048673;28;20080;-67
2022/08/01 11:02:03;;;;;;;13.13;2.60;;;20.40;99.90;;;;;;5049311;28;20048;-66
2022/08/01 11:04:37;;;;;;;9.02;2.78;;;20.50;99.90;;;;;;5053978;28;20049;-67
2022/08/01 11:07:07;;;;;;;9.07;2.83;;;20.60;99.90;;;;;;5054056;28;20566;-66
2022/08/01 11:09:44;;;;;;;9.13;2.65;;;20.70;99.90;;;;;;5054076;28;20051;-66
2022/08/01 11:12:13;;;;;;;16.40;2.78;;;20.80;99.90;;;;;;5059759;28;20574;-67
2022/08/01 11:14:57;;;;;;;11.00;2.13;;;20.80;99.90;;;;;;5065714;28;20734;-67
2022/08/01 11:17:50;;;;;;;5.45;1.80;;;20.80;99.90;;;;;;5072593;28;20037;-68
2022/08/01 11:20:22;;;;;;;7.18;1.67;;;20.70;99.90;;;;;;5073609;28;20431;-67
2022/08/01 11:25:47;;;;;;;5.90;2.10;;;21.10;99.90;;;;;;5072505;28;20162;-67
2022/08/01 11:28:16;;;;;;;8.48;2.47;;;21.10;99.90;;;;;;5064950;28;20052;-67
2022/08/01 11:30:42;;;;;;;6.57;2.20;;;21.00;99.90;;;;;;5072627;28;20054;-67
2022/08/01 11:33:08;;;;;;;10.95;2.25;;;21.10;99.90;;;;;;5073061;28;20048;-67
2022/08/01 11:35:35;;;;;;;4.40;2.10;;;21.10;99.90;;;;;;5071979;28;20036;-67
2022/08/01 11:38:22;;;;;;;8.18;1.98;;;21.10;99.90;;;;;;5070379;28;20098;-67
2022/08/01 11:41:07;;;;;;;8.43;2.47;;;21.10;99.90;;;;;;5071513;28;20500;-67
2022/08/01 11:43:33;;;;;;;8.93;2.67;;;21.00;99.90;;;;;;5054715;28;20072;-67
2022/08/01 11:45:59;;;;;;;19.77;3.13;;;20.90;99.90;;;;;;5056074;28;20282;-67
2022/08/01 11:48:26;;;;;;;8.15;2.60;;;21.00;99.90;;;;;;5071844;28;20110;-67
2022/08/01 11:50:53;;;;;;;8.48;2.22;;;21.10;99.90;;;;;;5072911;28;20043;-67
2022/08/01 11:53:19;;;;;;;8.07;2.30;;;21.00;99.90;;;;;;5072669;28;20082;-67
2022/08/01 11:55:53;;;;;;;6.78;2.42;;;21.30;99.90;;;;;;5055144;28;20091;-67
2022/08/01 11:58:24;;;;;;;8.13;2.22;;;21.50;99.90;;;;;;5071496;28;20051;-68
2022/08/01 12:00:54;;;;;;;7.30;2.00;;;21.40;99.90;;;;;;5071416;28;20090;-67
2022/08/01 12:03:27;;;;;;;10.63;2.25;;;21.20;99.90;;;;;;5070993;28;20706;-68
2022/08/01 12:05:54;;;;;;;5.38;2.03;;;21.20;99.90;;;;;;5071241;28;20046;-67
2022/08/01 12:08:36;;;;;;;5.43;1.92;;;21.30;99.90;;;;;;5071300;28;20044;-68
2022/08/01 12:11:04;;;;;;;6.95;2.08;;;21.30;99.90;;;;;;5054659;28;20517;-67
2022/08/01 12:13:44;;;;;;;6.70;1.85;;;21.50;99.90;;;;;;5069861;28;20055;-67
2022/08/01 12:16:10;;;;;;;8.18;2.15;;;21.20;99.90;;;;;;5054561;28;20040;-66
2022/08/01 12:18:43;;;;;;;7.97;2.38;;;21.30;99.90;;;;;;5071115;28;20615;-68
2022/08/01 12:21:09;;;;;;;9.95;2.30;;;21.00;99.90;;;;;;5070985;28;20040;-67
2022/08/01 12:23:34;;;;;;;5.22;2.38;;;21.10;99.90;;;;;;5054221;28;20047;-68
2022/08/01 12:26:01;;;;;;;7.47;2.38;;;21.20;99.90;;;;;;5053011;28;20102;-67
2022/08/01 12:28:27;;;;;;;6.68;2.10;;;21.10;99.90;;;;;;5044868;28;20453;-68
2022/08/01 12:30:52;;;;;;;5.05;2.22;;;21.10;99.90;;;;;;5060263;28;20054;-68
2022/08/01 12:33:20;;;;;;;9.20;2.10;;;21.20;99.90;;;;;;5060787;28;20123;-67
2022/08/01 12:35:46;;;;;;;7.40;2.00;;;21.20;99.90;;;;;;5060074;28;20029;-67
2022/08/01 12:38:22;;;;;;;12.60;2.45;;;21.20;99.90;;;;;;5059747;28;20202;-67
2022/08/01 12:40:49;;;;;;;6.45;2.15;;;21.00;99.90;;;;;;5056254;28;20498;-69
2022/08/01 12:43:19;;;;;;;5.47;1.95;;;21.40;99.90;;;;;;5055137;28;20059;-69
2022/08/01 12:45:48;;;;;;;9.65;2.55;;;21.30;99.90;;;;;;5061623;28;20422;-68
2022/08/01 12:48:16;;;;;;;7.85;2.55;;;21.30;99.90;;;;;;5060722;28;20044;-68
2022/08/01 12:50:52;;;;;;;6.85;2.08;;;21.30;99.90;;;;;;5060793;28;20609;-68
2022/08/01 12:53:20;;;;;;;8.35;2.08;;;21.20;99.90;;;;;;5060715;28;20030;-68